Terminal Aerodrome Forecast
Issued by NWS

Home | Current Version | Previous Version | Text Only | Print | Product List | Glossary On
Versions: 1 2 3 4 5 6 7 8 9 10 11 12 13 14 15 16 17 18 19 20 21 22 23 24
000
FTUS41 KOKX 230528
TAFSWF
TAF
KSWF 230528Z 2306/2412 VRB02KT P6SM FEW008 FEW040 BKN250
     FM230900 VRB02KT 4SM BR SCT008 SCT040 BKN250
     FM231300 14004KT P6SM SCT008 BKN035
     FM231900 15009KT P6SM SCT008 BKN030
     FM240000 16012KT 6SM -DZ BR SCT008 BKN025
     FM240400 16014G20KT 5SM SHRA BR SCT008 BKN015
      AMD NOT SKED=

USA.gov is the U.S. government's official web portal to all federal, state and local government web resources and services.